createdAt,value
2019-06-26T00:00:24.851Z,22.80
2019-06-26T00:02:54.035Z,22.80
2019-06-26T00:05:23.290Z,22.70
2019-06-26T00:07:52.350Z,22.70
2019-06-26T00:10:21.705Z,22.60
2019-06-26T00:12:50.814Z,22.60
2019-06-26T00:15:19.970Z,22.50
2019-06-26T00:17:49.034Z,22.40
2019-06-26T00:20:20.065Z,22.30
2019-06-26T00:22:49.090Z,22.30
2019-06-26T00:25:18.134Z,22.20
2019-06-26T00:27:47.198Z,22.20
2019-06-26T00:30:16.382Z,22.10
2019-06-26T00:32:45.417Z,22.00
2019-06-26T00:35:14.504Z,22.00
2019-06-26T00:37:43.575Z,21.80
2019-06-26T00:40:13.251Z,21.80
2019-06-26T00:42:42.306Z,21.70
2019-06-26T00:45:11.844Z,21.60
2019-06-26T00:47:40.826Z,21.50
2019-06-26T00:50:10.672Z,21.50
2019-06-26T00:52:39.779Z,21.50
2019-06-26T00:55:08.817Z,21.40
2019-06-26T00:57:37.896Z,21.40
2019-06-26T01:00:10.737Z,21.40
2019-06-26T01:02:39.901Z,21.40
2019-06-26T01:05:10.779Z,21.30
2019-06-26T01:07:39.913Z,21.20
2019-06-26T01:10:09.685Z,21.20
2019-06-26T01:12:38.725Z,21.20
2019-06-26T01:15:08.910Z,21.10
2019-06-26T01:17:38.030Z,21.10
2019-06-26T01:20:07.161Z,21.10
2019-06-26T01:22:36.383Z,21.10
2019-06-26T01:25:05.928Z,21.10
2019-06-26T01:27:34.998Z,21.00
2019-06-26T01:30:04.622Z,21.00
2019-06-26T01:32:33.616Z,20.90
2019-06-26T01:35:02.618Z,20.90
2019-06-26T01:37:31.755Z,20.80
2019-06-26T01:40:00.821Z,20.70
2019-06-26T01:42:29.901Z,20.70
2019-06-26T01:44:59.055Z,20.70
2019-06-26T01:47:28.069Z,20.70
2019-06-26T01:49:57.223Z,20.70
2019-06-26T01:52:26.261Z,20.70
2019-06-26T01:54:55.324Z,20.60
2019-06-26T01:57:24.743Z,20.60
2019-06-26T01:59:53.917Z,20.50
2019-06-26T02:02:22.946Z,20.50
2019-06-26T02:04:52.013Z,20.50
2019-06-26T02:07:21.056Z,20.50
2019-06-26T02:09:50.129Z,20.50
2019-06-26T02:12:19.219Z,20.40
2019-06-26T02:14:48.319Z,20.40
2019-06-26T02:17:17.422Z,20.40
2019-06-26T02:19:46.502Z,20.30
2019-06-26T02:22:15.557Z,20.30
2019-06-26T02:24:44.612Z,20.30
2019-06-26T02:27:13.769Z,20.20
2019-06-26T02:29:42.913Z,20.20
2019-06-26T02:32:12.020Z,20.20
2019-06-26T02:34:41.013Z,20.20
2019-06-26T02:37:09.919Z,20.20
2019-06-26T02:39:38.974Z,20.20
2019-06-26T02:42:08.023Z,20.10
2019-06-26T02:44:52.072Z,20.10
2019-06-26T02:47:19.850Z,20.10
2019-06-26T02:49:38.527Z,20.10
2019-06-26T02:52:08.047Z,20.10
2019-06-26T02:54:37.022Z,20.00
2019-06-26T02:57:06.074Z,20.00
2019-06-26T02:59:35.183Z,20.00
2019-06-26T03:02:09.095Z,20.00
2019-06-26T03:04:38.157Z,20.00
2019-06-26T03:07:07.234Z,20.00
2019-06-26T03:09:36.294Z,20.10
2019-06-26T03:12:05.449Z,20.10
2019-06-26T03:14:34.483Z,20.10
2019-06-26T03:17:03.466Z,20.10
2019-06-26T03:19:32.518Z,20.00
2019-06-26T03:22:01.626Z,20.00
2019-06-26T03:24:30.612Z,20.00
2019-06-26T03:26:59.703Z,20.00
2019-06-26T03:29:28.780Z,20.00
2019-06-26T03:31:57.839Z,20.00
2019-06-26T03:34:26.847Z,20.00
2019-06-26T03:36:55.897Z,20.00
2019-06-26T03:39:24.950Z,20.00
2019-06-26T03:41:53.997Z,20.00
2019-06-26T03:44:23.002Z,20.00
2019-06-26T03:46:51.995Z,20.00
2019-06-26T03:49:20.969Z,19.90
2019-06-26T03:51:49.875Z,20.00
2019-06-26T03:54:18.850Z,20.00
2019-06-26T03:56:47.853Z,19.90
2019-06-26T03:59:16.798Z,19.90
2019-06-26T04:01:45.865Z,19.90
2019-06-26T04:04:14.936Z,19.90
2019-06-26T04:06:44.020Z,19.90
2019-06-26T04:09:12.980Z,19.90
2019-06-26T04:11:42.649Z,19.90
2019-06-26T04:14:11.712Z,19.90
2019-06-26T04:16:40.774Z,19.90
2019-06-26T04:19:09.880Z,19.90
2019-06-26T04:21:38.841Z,19.90
2019-06-26T04:24:08.707Z,19.90
2019-06-26T04:26:37.683Z,19.90
2019-06-26T04:29:06.786Z,19.90
2019-06-26T04:31:36.111Z,19.90
2019-06-26T04:34:05.207Z,19.80
2019-06-26T04:36:34.233Z,19.80
2019-06-26T04:39:03.753Z,19.80
2019-06-26T04:41:32.758Z,19.90
2019-06-26T04:44:01.951Z,19.80
2019-06-26T04:46:31.041Z,19.80
2019-06-26T04:48:59.941Z,19.80
2019-06-26T04:51:28.917Z,19.80
2019-06-26T04:53:57.917Z,19.80
2019-06-26T04:56:27.132Z,19.80
2019-06-26T04:58:56.188Z,19.80
2019-06-26T05:01:25.437Z,19.90
2019-06-26T05:03:54.557Z,19.90
2019-06-26T05:06:23.653Z,19.90
2019-06-26T05:08:52.717Z,19.90
2019-06-26T05:11:21.846Z,19.90
2019-06-26T05:13:50.997Z,19.90
2019-06-26T05:16:20.615Z,20.00
2019-06-26T05:18:50.126Z,20.00
2019-06-26T05:21:19.177Z,20.00
2019-06-26T05:23:48.273Z,20.00
2019-06-26T05:26:17.439Z,20.00
2019-06-26T05:28:46.492Z,20.00
2019-06-26T05:31:15.494Z,20.10
2019-06-26T05:33:44.540Z,20.10
2019-06-26T05:36:13.597Z,20.10
2019-06-26T05:38:42.589Z,20.10
2019-06-26T05:41:11.755Z,20.10
2019-06-26T05:43:40.785Z,20.20
2019-06-26T05:46:09.876Z,20.20
2019-06-26T05:48:38.914Z,20.20
2019-06-26T05:51:07.985Z,20.20
2019-06-26T05:53:36.955Z,20.20
2019-06-26T05:56:06.745Z,20.20
2019-06-26T05:58:35.816Z,20.20
2019-06-26T06:01:04.850Z,20.20
2019-06-26T06:03:33.889Z,20.20
2019-06-26T06:06:02.920Z,20.30
2019-06-26T06:08:31.888Z,20.20
2019-06-26T06:11:00.958Z,20.20
2019-06-26T06:13:29.945Z,20.30
2019-06-26T06:15:58.986Z,20.30
2019-06-26T06:18:28.024Z,20.30
2019-06-26T06:20:57.089Z,20.30
2019-06-26T06:23:26.041Z,20.30
2019-06-26T06:25:55.053Z,20.40
2019-06-26T06:28:24.085Z,20.40
2019-06-26T06:30:53.066Z,20.40
2019-06-26T06:33:22.137Z,20.40
2019-06-26T06:35:51.193Z,20.40
2019-06-26T06:38:20.175Z,20.40
2019-06-26T06:40:49.292Z,20.50
2019-06-26T06:43:19.075Z,20.50
2019-06-26T06:45:48.132Z,20.50
2019-06-26T06:48:17.186Z,20.60
2019-06-26T06:50:46.233Z,20.60
2019-06-26T06:53:15.196Z,20.60
2019-06-26T06:55:44.249Z,20.60
2019-06-26T06:58:13.288Z,20.60
2019-06-26T07:00:42.484Z,20.60
2019-06-26T07:03:11.569Z,20.70
2019-06-26T07:05:40.602Z,20.70
2019-06-26T07:08:09.648Z,20.80
2019-06-26T07:10:38.762Z,20.80
2019-06-26T07:13:07.802Z,20.80
2019-06-26T07:15:36.853Z,20.90
2019-06-26T07:18:05.968Z,20.90
2019-06-26T07:20:35.025Z,20.90
2019-06-26T07:23:04.078Z,21.00
2019-06-26T07:25:33.202Z,21.10
2019-06-26T07:28:02.345Z,21.10
2019-06-26T07:30:31.454Z,21.10
2019-06-26T07:33:00.548Z,21.20
2019-06-26T07:35:29.673Z,21.20
2019-06-26T07:38:00.208Z,21.20
2019-06-26T07:40:29.748Z,21.20
2019-06-26T07:42:58.778Z,21.30
2019-06-26T07:45:27.883Z,21.30
2019-06-26T07:47:57.022Z,21.30
2019-06-26T07:50:26.148Z,21.40
2019-06-26T07:52:55.426Z,21.40
2019-06-26T07:55:24.585Z,21.50
2019-06-26T07:57:53.812Z,21.50
2019-06-26T08:00:23.371Z,21.50
2019-06-26T08:02:52.519Z,21.50
2019-06-26T08:05:21.803Z,21.60
2019-06-26T08:07:50.954Z,21.60
2019-06-26T08:10:20.272Z,21.60
2019-06-26T08:12:49.368Z,21.70
2019-06-26T08:15:19.044Z,21.70
2019-06-26T08:17:59.829Z,21.80
2019-06-26T08:20:19.688Z,21.90
2019-06-26T08:22:48.693Z,21.90
2019-06-26T08:25:17.813Z,22.00
2019-06-26T08:27:46.914Z,22.00
2019-06-26T08:30:16.494Z,22.10
2019-06-26T08:32:45.573Z,22.10
2019-06-26T08:35:14.947Z,22.20
2019-06-26T08:37:43.977Z,22.30
2019-06-26T08:40:14.724Z,22.30
2019-06-26T08:42:43.734Z,22.40
2019-06-26T08:45:12.871Z,22.50
2019-06-26T08:47:42.136Z,22.60
2019-06-26T08:50:11.814Z,22.60
2019-06-26T08:52:40.810Z,22.70
2019-06-26T08:55:10.207Z,22.70
2019-06-26T08:57:39.353Z,22.80
2019-06-26T09:00:09.318Z,22.90
2019-06-26T09:02:38.584Z,22.90
2019-06-26T09:05:08.298Z,23.00
2019-06-26T09:07:37.571Z,23.10
2019-06-26T09:10:08.240Z,23.10
2019-06-26T09:12:37.285Z,23.20
2019-06-26T09:15:06.855Z,23.30
2019-06-26T09:17:36.373Z,23.40
2019-06-26T09:20:06.167Z,23.40
2019-06-26T09:22:35.226Z,23.50
2019-06-26T09:25:20.209Z,23.60
2019-06-26T09:27:35.368Z,23.70
2019-06-26T09:30:05.375Z,23.70
2019-06-26T09:32:34.444Z,23.80
2019-06-26T09:35:03.982Z,23.90
2019-06-26T09:37:33.047Z,24.00
2019-06-26T09:40:02.132Z,24.00
2019-06-26T09:42:31.225Z,24.10
2019-06-26T09:45:00.261Z,24.10
2019-06-26T09:47:31.081Z,24.20
2019-06-26T09:50:00.331Z,24.30
2019-06-26T09:52:29.471Z,24.40
2019-06-26T09:54:58.825Z,24.40
2019-06-26T09:57:27.814Z,24.40
2019-06-26T09:59:56.806Z,24.50
2019-06-26T10:02:25.895Z,24.60
2019-06-26T10:04:54.963Z,24.60
2019-06-26T10:07:24.023Z,24.70
2019-06-26T10:09:53.038Z,24.80
2019-06-26T10:12:22.149Z,24.90
2019-06-26T10:14:51.187Z,24.90
2019-06-26T10:17:20.188Z,25.00
2019-06-26T10:19:49.356Z,25.10
2019-06-26T10:22:18.407Z,25.10
2019-06-26T10:24:47.500Z,25.20
2019-06-26T10:27:16.446Z,25.30
2019-06-26T10:29:45.436Z,25.40
2019-06-26T10:32:14.564Z,25.40
2019-06-26T10:34:43.670Z,25.50
2019-06-26T10:37:12.736Z,25.50
2019-06-26T10:39:41.878Z,25.60
2019-06-26T10:42:10.937Z,25.70
2019-06-26T10:44:40.081Z,25.70
2019-06-26T10:47:09.088Z,25.70
2019-06-26T10:49:38.204Z,25.80
2019-06-26T10:52:07.444Z,25.90
2019-06-26T10:54:36.612Z,26.00
2019-06-26T10:57:05.799Z,26.00
2019-06-26T10:59:34.872Z,26.00
2019-06-26T11:02:04.430Z,26.00
2019-06-26T11:04:33.518Z,26.00
2019-06-26T11:07:02.489Z,26.10
2019-06-26T11:09:31.547Z,26.10
2019-06-26T11:12:00.714Z,26.20
2019-06-26T11:14:29.583Z,26.20
2019-06-26T11:16:58.679Z,26.20
2019-06-26T11:19:42.554Z,26.20
2019-06-26T11:21:58.547Z,26.10
2019-06-26T11:24:27.551Z,26.10
2019-06-26T11:26:56.521Z,26.10
2019-06-26T11:29:25.535Z,26.00
2019-06-26T11:31:54.725Z,26.00
2019-06-26T11:34:23.976Z,26.10
2019-06-26T11:37:03.167Z,26.10
2019-06-26T11:39:23.960Z,26.00
2019-06-26T11:41:53.113Z,26.10
2019-06-26T11:44:22.107Z,26.10
2019-06-26T11:46:51.246Z,26.10
2019-06-26T11:49:20.305Z,26.10
2019-06-26T11:51:49.524Z,26.10
2019-06-26T11:54:18.677Z,26.10
2019-06-26T11:56:47.756Z,26.10
2019-06-26T11:59:16.886Z,26.10
2019-06-26T12:01:45.968Z,26.10
2019-06-26T12:04:15.029Z,26.00
2019-06-26T12:06:46.100Z,26.00
2019-06-26T12:09:15.059Z,26.00
2019-06-26T12:11:44.198Z,26.00
2019-06-26T12:14:13.337Z,26.00
2019-06-26T12:16:42.472Z,26.00
2019-06-26T12:19:11.721Z,26.00
2019-06-26T12:21:40.831Z,26.00
2019-06-26T12:24:10.013Z,26.10
2019-06-26T12:26:39.062Z,26.10
2019-06-26T12:29:08.247Z,26.10
2019-06-26T12:31:37.332Z,26.10
2019-06-26T12:34:06.427Z,26.20
2019-06-26T12:36:35.553Z,26.30
2019-06-26T12:39:06.181Z,26.30
2019-06-26T12:41:35.194Z,26.40
2019-06-26T12:44:04.445Z,26.40
2019-06-26T12:46:33.497Z,26.50
2019-06-26T12:49:02.596Z,26.50
2019-06-26T12:51:31.693Z,26.60
2019-06-26T12:54:00.809Z,26.70
2019-06-26T12:56:29.965Z,26.70
2019-06-26T12:59:00.171Z,26.80
2019-06-26T13:01:29.408Z,26.90
2019-06-26T13:03:58.478Z,27.00
2019-06-26T13:06:27.604Z,27.00
2019-06-26T13:08:56.803Z,27.10
2019-06-26T13:11:25.928Z,27.20
2019-06-26T13:14:02.379Z,27.30
2019-06-26T13:16:25.968Z,27.30
2019-06-26T13:18:55.221Z,27.40
2019-06-26T13:21:24.361Z,27.50
2019-06-26T13:23:53.501Z,27.60
2019-06-26T13:26:22.499Z,27.70
2019-06-26T13:28:51.474Z,27.80
2019-06-26T13:31:20.606Z,27.90
2019-06-26T13:33:49.665Z,28.00
2019-06-26T13:36:18.764Z,28.10
2019-06-26T13:38:47.854Z,28.20
2019-06-26T13:41:16.911Z,28.30
2019-06-26T13:43:45.917Z,28.40
2019-06-26T13:46:14.919Z,28.50
2019-06-26T13:48:43.877Z,28.60
2019-06-26T13:51:12.930Z,28.60
2019-06-26T13:53:41.933Z,28.80
2019-06-26T13:56:11.203Z,28.80
2019-06-26T13:58:41.005Z,28.90
2019-06-26T14:01:10.078Z,29.10
2019-06-26T14:03:39.233Z,29.20
2019-06-26T14:06:08.366Z,29.30
2019-06-26T14:08:37.368Z,29.40
2019-06-26T14:11:07.547Z,29.60
2019-06-26T14:13:36.817Z,29.70
2019-06-26T14:16:05.876Z,29.80
2019-06-26T14:18:34.942Z,30.00
2019-06-26T14:21:04.006Z,30.10
2019-06-26T14:23:33.066Z,30.20
2019-06-26T14:26:02.137Z,30.30
2019-06-26T14:28:31.243Z,30.50
2019-06-26T14:31:00.415Z,30.60
2019-06-26T14:33:29.484Z,30.70
2019-06-26T14:35:58.609Z,30.80
2019-06-26T14:38:27.556Z,31.00
2019-06-26T14:40:56.624Z,31.10
2019-06-26T14:43:25.681Z,31.20
2019-06-26T14:45:54.800Z,31.30
2019-06-26T14:48:23.841Z,31.30
2019-06-26T14:50:52.849Z,31.40
2019-06-26T14:53:21.817Z,31.60
2019-06-26T14:55:50.926Z,31.70
2019-06-26T14:58:20.091Z,31.80
2019-06-26T15:00:49.216Z,31.90
2019-06-26T15:03:18.202Z,31.90
2019-06-26T15:05:47.198Z,32.00
2019-06-26T15:08:16.226Z,32.10
2019-06-26T15:10:45.333Z,32.20
2019-06-26T15:13:14.490Z,32.30
2019-06-26T15:15:43.762Z,32.30
2019-06-26T15:18:12.937Z,32.40
2019-06-26T15:20:41.963Z,32.50
2019-06-26T15:23:11.039Z,32.50
2019-06-26T15:25:40.111Z,32.60
2019-06-26T15:28:10.440Z,32.70
2019-06-26T15:30:39.834Z,32.60
2019-06-26T15:33:08.916Z,32.80
2019-06-26T15:35:38.009Z,32.70
2019-06-26T15:38:06.983Z,32.80
2019-06-26T15:40:36.102Z,32.90
2019-06-26T15:43:05.129Z,33.00
2019-06-26T15:45:34.207Z,33.00
2019-06-26T15:48:03.228Z,33.00
2019-06-26T15:50:32.399Z,33.10
2019-06-26T15:53:01.482Z,33.10
2019-06-26T15:55:30.486Z,33.10
2019-06-26T15:57:59.660Z,33.30
2019-06-26T16:00:28.628Z,33.30
2019-06-26T16:02:57.633Z,33.30
2019-06-26T16:05:26.657Z,33.30
2019-06-26T16:07:55.801Z,33.20
2019-06-26T16:10:25.031Z,33.20
2019-06-26T16:12:54.013Z,33.40
2019-06-26T16:15:23.390Z,33.40
2019-06-26T16:18:06.932Z,33.50
2019-06-26T16:20:35.871Z,33.50
2019-06-26T16:23:05.012Z,33.50
2019-06-26T16:25:34.210Z,33.60
2019-06-26T16:28:05.849Z,33.60
2019-06-26T16:30:33.974Z,33.50
2019-06-26T16:33:02.958Z,33.70
2019-06-26T16:35:32.017Z,33.80
2019-06-26T16:38:01.009Z,33.80
2019-06-26T16:40:30.083Z,33.90
2019-06-26T16:42:59.138Z,33.90
2019-06-26T16:45:28.192Z,34.00
2019-06-26T16:47:57.218Z,34.00
2019-06-26T16:50:26.279Z,34.00
2019-06-26T16:52:55.333Z,34.10
2019-06-26T16:55:25.360Z,34.10
2019-06-26T16:57:54.442Z,34.10
2019-06-26T17:00:23.620Z,34.10
2019-06-26T17:02:52.882Z,34.10
2019-06-26T17:05:21.899Z,34.00
2019-06-26T17:07:50.953Z,33.70
2019-06-26T17:10:20.860Z,33.40
2019-06-26T17:12:50.084Z,33.40
2019-06-26T17:15:20.165Z,33.50
2019-06-26T17:17:49.158Z,33.50
2019-06-26T17:20:18.431Z,33.30
2019-06-26T17:23:01.018Z,33.10
2019-06-26T17:25:18.432Z,33.00
2019-06-26T17:27:47.523Z,32.80
2019-06-26T17:30:16.861Z,32.60
2019-06-26T17:32:45.912Z,32.50
2019-06-26T17:35:14.958Z,32.40
2019-06-26T17:37:44.457Z,32.30
2019-06-26T17:40:14.397Z,32.20
2019-06-26T17:42:43.637Z,32.00
2019-06-26T17:45:13.737Z,31.80
2019-06-26T17:47:42.900Z,31.50
2019-06-26T17:50:12.535Z,31.20
2019-06-26T17:52:41.848Z,31.00
2019-06-26T17:55:11.711Z,30.80
2019-06-26T17:57:41.317Z,30.70
2019-06-26T18:00:12.915Z,30.50
2019-06-26T18:02:42.075Z,30.20
2019-06-26T18:05:11.547Z,30.00
2019-06-26T18:07:40.732Z,29.90
2019-06-26T18:10:11.134Z,29.70
2019-06-26T18:12:40.189Z,29.50
2019-06-26T18:15:09.496Z,29.40
2019-06-26T18:17:38.568Z,29.20
2019-06-26T18:20:12.019Z,29.10
2019-06-26T18:22:42.365Z,29.00
2019-06-26T18:25:12.046Z,28.90
2019-06-26T18:27:42.386Z,28.60
2019-06-26T18:30:13.480Z,28.50
2019-06-26T18:32:43.213Z,28.30
2019-06-26T18:35:12.560Z,28.10
2019-06-26T18:37:41.777Z,27.90
2019-06-26T18:40:13.376Z,27.80
2019-06-26T18:42:42.479Z,27.70
2019-06-26T18:45:11.735Z,27.50
2019-06-26T18:47:40.836Z,27.40
2019-06-26T18:50:10.196Z,27.20
2019-06-26T18:52:39.305Z,27.10
2019-06-26T18:55:09.082Z,26.90
2019-06-26T18:57:38.138Z,26.80
2019-06-26T19:00:07.519Z,26.60
2019-06-26T19:02:36.565Z,26.50
2019-06-26T19:05:06.445Z,26.30
2019-06-26T19:07:35.502Z,26.10
2019-06-26T19:10:05.465Z,26.00
2019-06-26T19:12:34.645Z,26.00
2019-06-26T19:15:03.818Z,25.80
2019-06-26T19:17:32.899Z,25.70
2019-06-26T19:20:02.187Z,25.60
2019-06-26T19:22:31.489Z,25.50
2019-06-26T19:25:00.558Z,25.40
2019-06-26T19:27:30.360Z,25.20
2019-06-26T19:29:59.367Z,25.00
2019-06-26T19:32:28.441Z,24.80
2019-06-26T19:34:57.474Z,24.70
2019-06-26T19:37:26.425Z,24.60
2019-06-26T19:39:55.497Z,24.50
2019-06-26T19:42:24.564Z,24.50
2019-06-26T19:44:53.603Z,24.30
2019-06-26T19:47:22.582Z,24.20
2019-06-26T19:49:51.865Z,24.00
2019-06-26T19:52:20.923Z,23.90
2019-06-26T19:54:50.056Z,23.80
2019-06-26T19:57:19.183Z,23.60
2019-06-26T19:59:48.355Z,23.50
2019-06-26T20:02:17.326Z,23.50
2019-06-26T20:04:48.388Z,23.40
2019-06-26T20:07:17.244Z,23.40
2019-06-26T20:09:46.315Z,23.20
2019-06-26T20:12:15.336Z,23.20
2019-06-26T20:14:44.467Z,23.20
2019-06-26T20:17:13.543Z,23.00
2019-06-26T20:19:42.579Z,22.90
2019-06-26T20:22:11.761Z,22.80
2019-06-26T20:24:44.583Z,22.70
2019-06-26T20:27:11.639Z,22.70
2019-06-26T20:29:40.746Z,22.60
2019-06-26T20:32:09.865Z,22.50
2019-06-26T20:34:39.032Z,22.40
2019-06-26T20:37:08.182Z,22.30
2019-06-26T20:39:37.218Z,22.20
2019-06-26T20:42:06.385Z,22.10
2019-06-26T20:44:35.466Z,22.00
2019-06-26T20:47:04.944Z,21.90
2019-06-26T20:49:34.368Z,21.80
2019-06-26T20:52:03.266Z,21.80
2019-06-26T20:54:32.314Z,21.70
2019-06-26T20:57:01.375Z,21.50
2019-06-26T20:59:30.566Z,21.60
2019-06-26T21:01:59.689Z,21.50
2019-06-26T21:04:28.959Z,21.40
2019-06-26T21:06:58.083Z,21.40
2019-06-26T21:09:27.199Z,21.30
2019-06-26T21:11:56.234Z,21.30
2019-06-26T21:14:25.178Z,21.20
2019-06-26T21:16:54.225Z,21.20
2019-06-26T21:19:23.365Z,21.10
2019-06-26T21:21:52.497Z,21.10
2019-06-26T21:24:21.637Z,21.10
2019-06-26T21:26:50.992Z,21.00
2019-06-26T21:29:20.062Z,21.00
2019-06-26T21:31:48.979Z,21.00
2019-06-26T21:34:18.111Z,20.90
2019-06-26T21:36:47.069Z,20.90
2019-06-26T21:39:16.057Z,20.80
2019-06-26T21:41:44.960Z,20.80
2019-06-26T21:44:13.914Z,20.80
2019-06-26T21:46:42.933Z,20.80
2019-06-26T21:49:11.900Z,20.80
2019-06-26T21:51:40.876Z,20.80
2019-06-26T21:54:09.846Z,20.70
2019-06-26T21:56:38.991Z,20.70
2019-06-26T21:59:08.074Z,20.70
2019-06-26T22:01:38.121Z,20.60
2019-06-26T22:04:07.955Z,20.50
2019-06-26T22:09:05.974Z,20.50
2019-06-26T22:11:35.287Z,20.50
2019-06-26T22:14:04.616Z,20.50
2019-06-26T22:16:33.695Z,20.40
2019-06-26T22:19:02.823Z,20.30
2019-06-26T22:21:31.873Z,20.30
2019-06-26T22:24:00.901Z,20.20
2019-06-26T22:26:29.964Z,20.20
2019-06-26T22:28:59.042Z,20.20
2019-06-26T22:31:28.062Z,20.10
2019-06-26T22:33:57.367Z,20.10
2019-06-26T22:36:26.582Z,20.10
2019-06-26T22:38:55.625Z,20.00
2019-06-26T22:41:24.814Z,19.90
2019-06-26T22:43:54.126Z,19.90
2019-06-26T22:46:23.167Z,19.90
2019-06-26T22:48:52.299Z,19.80
2019-06-26T22:51:21.405Z,19.80
2019-06-26T22:53:50.444Z,19.80
2019-06-26T22:56:19.537Z,19.80
2019-06-26T22:58:48.617Z,19.80
2019-06-26T23:01:17.722Z,19.80
2019-06-26T23:03:46.694Z,19.70
2019-06-26T23:06:15.834Z,19.70
2019-06-26T23:08:44.886Z,19.70
2019-06-26T23:11:13.946Z,19.60
2019-06-26T23:13:43.033Z,19.60
2019-06-26T23:16:12.117Z,19.60
2019-06-26T23:18:41.099Z,19.60
2019-06-26T23:21:10.110Z,19.50
2019-06-26T23:23:58.351Z,19.50
2019-06-26T23:26:27.381Z,19.50
2019-06-26T23:28:56.440Z,19.50
2019-06-26T23:31:25.497Z,19.50
2019-06-26T23:33:54.501Z,19.50
2019-06-26T23:36:23.538Z,19.50
2019-06-26T23:38:52.518Z,19.40
2019-06-26T23:41:21.950Z,19.50
2019-06-26T23:43:51.030Z,19.40
2019-06-26T23:46:20.369Z,19.40
2019-06-26T23:48:49.389Z,19.40
2019-06-26T23:51:18.464Z,19.40
2019-06-26T23:53:47.501Z,19.40
2019-06-26T23:56:16.661Z,19.40
2019-06-26T23:58:45.685Z,19.40
